Time;durP1;ratioP1;P1;durP2;ratioP2;P2;SDS_P1;SDS_P2;PMS_P1;PMS_P2;Temp;Humidity;BMP_temperature;BMP_pressure;BME280_temperature;BME280_humidity;BME280_pressure;Samples;Min_cycle;Max_cycle;Signal;HPM_P1;HPM_P2
2023/02/15 00:01:37;;;;;;;156.10;23.20;;;-0.50;99.90;;;;;;5015292;28;20506;-58
2023/02/15 00:04:05;;;;;;;178.70;23.87;;;-0.50;99.90;;;;;;5021737;28;20432;-58
2023/02/15 00:06:31;;;;;;;87.53;19.60;;;-0.60;99.90;;;;;;5022410;28;20228;-58
2023/02/15 00:08:56;;;;;;;66.30;21.17;;;-0.70;99.90;;;;;;5033287;28;20883;-58
2023/02/15 00:11:40;;;;;;;183.20;24.63;;;-0.70;99.90;;;;;;5026231;28;20440;-58
2023/02/15 00:14:11;;;;;;;213.80;24.40;;;-0.80;99.90;;;;;;5029129;28;20213;-58
2023/02/15 00:16:38;;;;;;;65.93;19.63;;;-0.80;99.90;;;;;;5025340;28;20463;-58
2023/02/15 00:19:04;;;;;;;155.70;22.80;;;-0.80;99.90;;;;;;5027564;28;20809;-58
2023/02/15 00:21:31;;;;;;;196.40;25.90;;;-0.90;99.90;;;;;;5027480;28;20526;-58
2023/02/15 00:23:58;;;;;;;177.40;23.43;;;-0.90;99.90;;;;;;5028841;28;20427;-58
2023/02/15 00:26:24;;;;;;;142.03;21.87;;;-1.00;99.90;;;;;;5026968;28;20452;-58
2023/02/15 00:28:50;;;;;;;188.80;24.40;;;-1.00;99.90;;;;;;5027441;28;20839;-58
2023/02/15 00:31:16;;;;;;;135.17;21.03;;;-1.10;99.90;;;;;;5026839;28;20458;-58
2023/02/15 00:33:41;;;;;;;79.80;20.13;;;-1.20;99.90;;;;;;5019560;28;20285;-58
2023/02/15 00:36:09;;;;;;;87.90;20.53;;;-1.20;99.90;;;;;;5031203;28;20674;-58
2023/02/15 00:38:35;;;;;;;215.20;22.00;;;-1.20;99.90;;;;;;5030776;28;20187;-57
2023/02/15 00:41:03;;;;;;;51.30;19.30;;;-1.30;99.90;;;;;;5029701;28;20439;-58
2023/02/15 00:43:31;;;;;;;94.87;20.10;;;-1.30;99.90;;;;;;5025325;28;21002;-58
2023/02/15 00:45:57;;;;;;;84.33;17.60;;;-1.30;99.90;;;;;;5030296;28;20484;-59
2023/02/15 00:48:23;;;;;;;109.20;19.47;;;-1.30;99.90;;;;;;5029559;28;20510;-58
2023/02/15 00:50:57;;;;;;;148.03;22.30;;;-1.40;99.90;;;;;;5024611;28;20425;-58
2023/02/15 00:53:23;;;;;;;166.27;20.30;;;-1.40;99.90;;;;;;5030045;28;20432;-60
2023/02/15 00:55:49;;;;;;;62.07;17.97;;;-1.50;99.90;;;;;;5037853;28;20559;-60
2023/02/15 00:58:16;;;;;;;113.07;19.43;;;-1.50;99.90;;;;;;5030844;28;20526;-58
2023/02/15 01:00:44;;;;;;;111.53;18.43;;;-1.50;99.90;;;;;;5033647;28;20432;-59
2023/02/15 01:03:10;;;;;;;91.17;17.87;;;-1.50;99.90;;;;;;5029017;28;20472;-59
2023/02/15 01:05:36;;;;;;;52.83;17.43;;;-1.60;99.90;;;;;;5024507;28;20459;-58
2023/02/15 01:08:02;;;;;;;134.07;19.07;;;-1.60;99.90;;;;;;5026515;28;20459;-58
2023/02/15 01:10:28;;;;;;;104.67;18.57;;;-1.60;99.90;;;;;;5026976;28;20527;-58
2023/02/15 01:12:54;;;;;;;74.40;17.27;;;-1.70;99.90;;;;;;5026877;28;20571;-58
2023/02/15 01:15:20;;;;;;;158.07;22.40;;;-1.70;99.90;;;;;;5015781;28;20469;-58
2023/02/15 01:17:51;;;;;;;46.17;17.30;;;-1.70;99.90;;;;;;5025332;28;20455;-58
2023/02/15 01:20:23;;;;;;;41.03;17.73;;;-1.70;99.90;;;;;;5027542;28;20171;-59
2023/02/15 01:22:49;;;;;;;39.70;16.40;;;-1.70;99.90;;;;;;5027166;28;20523;-58
2023/02/15 01:25:16;;;;;;;51.67;16.40;;;-1.70;99.90;;;;;;5025180;28;20487;-58
2023/02/15 01:27:42;;;;;;;32.03;17.40;;;-1.60;99.90;;;;;;5031130;28;20443;-58
2023/02/15 01:30:09;;;;;;;38.30;17.23;;;-1.60;99.90;;;;;;5029712;28;20489;-59
2023/02/15 01:32:34;;;;;;;37.40;17.57;;;-1.60;99.90;;;;;;5031434;28;20852;-59
2023/02/15 01:35:00;;;;;;;38.40;16.93;;;-1.60;99.90;;;;;;5028508;28;20444;-59
2023/02/15 01:37:26;;;;;;;66.70;16.20;;;-1.60;99.90;;;;;;5029255;28;20211;-59
2023/02/15 01:39:53;;;;;;;44.57;15.73;;;-1.60;99.90;;;;;;5026431;28;20183;-58
2023/02/15 01:42:23;;;;;;;51.50;14.60;;;-1.60;99.90;;;;;;5013060;28;20548;-59
2023/02/15 01:45:00;;;;;;;55.33;16.93;;;-1.70;99.90;;;;;;5017269;28;20449;-58
2023/02/15 01:47:40;;;;;;;33.33;16.07;;;-1.80;99.90;;;;;;5027091;28;20430;-58
2023/02/15 01:50:25;;;;;;;26.30;15.30;;;-1.80;99.90;;;;;;5012182;28;20446;-59
2023/02/15 01:52:50;;;;;;;24.80;13.13;;;-1.80;99.90;;;;;;5031109;28;20921;-58
2023/02/15 01:55:16;;;;;;;23.10;14.47;;;-1.80;99.90;;;;;;5030822;28;20440;-58
2023/02/15 01:57:45;;;;;;;26.67;12.57;;;-1.80;99.90;;;;;;5028643;28;20178;-58
2023/02/15 02:00:11;;;;;;;23.80;13.20;;;-1.90;99.90;;;;;;5027902;28;20459;-58
2023/02/15 02:02:37;;;;;;;25.20;14.17;;;-1.90;99.90;;;;;;5032483;28;20424;-58
2023/02/15 02:05:06;;;;;;;21.93;13.77;;;-1.90;99.90;;;;;;5028244;28;20505;-58
2023/02/15 02:07:38;;;;;;;26.57;13.47;;;-1.90;99.90;;;;;;5016114;28;20231;-58
2023/02/15 02:10:05;;;;;;;24.93;14.53;;;-1.90;99.90;;;;;;5030163;28;20429;-59
2023/02/15 02:12:32;;;;;;;29.40;14.63;;;-1.90;99.90;;;;;;5027326;28;20432;-58
2023/02/15 02:14:58;;;;;;;52.23;15.83;;;-1.90;99.90;;;;;;5029975;28;20464;-58
2023/02/15 02:17:52;;;;;;;30.33;15.40;;;-1.90;99.90;;;;;;5031344;28;20444;-58
2023/02/15 02:20:45;;;;;;;53.47;15.70;;;-2.00;99.90;;;;;;5029998;28;20450;-59
2023/02/15 02:23:23;;;;;;;34.37;14.47;;;-2.00;99.90;;;;;;5011120;28;20480;-58
2023/02/15 02:26:00;;;;;;;33.03;14.13;;;-2.10;99.90;;;;;;5029266;28;20972;-59
2023/02/15 02:28:44;;;;;;;33.80;15.00;;;-2.20;99.90;;;;;;5026859;28;20476;-59
2023/02/15 02:31:31;;;;;;;33.67;16.40;;;-2.20;99.90;;;;;;5024344;28;20494;-58
2023/02/15 02:34:08;;;;;;;45.03;15.03;;;-2.20;99.90;;;;;;5023853;28;20419;-58
2023/02/15 02:37:00;;;;;;;59.40;14.23;;;-2.20;99.90;;;;;;5009451;28;20852;-58
2023/02/15 02:39:40;;;;;;;26.90;14.30;;;-2.30;99.90;;;;;;5011748;28;20936;-58
2023/02/15 02:42:41;;;;;;;29.30;15.23;;;-2.30;99.90;;;;;;5022716;28;20982;-59
2023/02/15 02:45:15;;;;;;;24.43;14.43;;;-2.40;99.90;;;;;;5024656;28;20464;-58
2023/02/15 02:48:01;;;;;;;26.97;15.43;;;-2.40;99.90;;;;;;5026590;28;20466;-58
2023/02/15 02:50:30;;;;;;;36.97;14.70;;;-2.40;99.90;;;;;;5007862;28;20439;-58
2023/02/15 02:52:58;;;;;;;22.97;11.83;;;-2.40;99.90;;;;;;5028784;28;20475;-59
2023/02/15 02:55:35;;;;;;;23.27;13.33;;;-2.40;99.90;;;;;;5012473;28;20465;-58
2023/02/15 02:58:03;;;;;;;22.07;13.37;;;-2.40;99.90;;;;;;5029725;28;20835;-59
2023/02/15 03:00:34;;;;;;;20.50;11.87;;;-2.40;99.90;;;;;;5027279;28;20435;-58
2023/02/15 03:03:07;;;;;;;23.13;13.80;;;-2.40;99.90;;;;;;5026296;28;20549;-59
2023/02/15 03:05:35;;;;;;;22.80;13.80;;;-2.40;99.90;;;;;;5025692;28;20493;-59
2023/02/15 03:08:05;;;;;;;22.30;12.67;;;-2.40;99.90;;;;;;5029077;28;20458;-58
2023/02/15 03:10:34;;;;;;;22.93;13.47;;;-2.40;99.90;;;;;;5025929;28;20471;-60
2023/02/15 03:12:59;;;;;;;25.70;12.53;;;-2.40;99.90;;;;;;5011814;28;20427;-58
2023/02/15 03:16:25;;;;;;;23.43;12.23;;;-2.40;99.90;;;;;;5008753;28;20522;-58
2023/02/15 03:18:19;;;;;;;25.50;13.33;;;-2.40;99.90;;;;;;5017467;28;20189;-58
2023/02/15 03:20:47;;;;;;;20.47;12.90;;;-2.40;99.90;;;;;;5002038;28;20434;-59
2023/02/15 03:23:18;;;;;;;20.97;12.80;;;-2.40;99.90;;;;;;5016339;28;20805;-59
2023/02/15 03:25:49;;;;;;;23.37;13.67;;;-2.50;99.90;;;;;;5027992;28;20991;-57
2023/02/15 03:28:20;;;;;;;21.13;12.60;;;-2.50;99.90;;;;;;5026391;28;21031;-59
2023/02/15 03:30:51;;;;;;;22.63;12.87;;;-2.50;99.90;;;;;;5025382;28;20434;-57
2023/02/15 03:33:18;;;;;;;20.40;11.70;;;-2.50;99.90;;;;;;5027075;28;20595;-59
2023/02/15 03:35:53;;;;;;;21.53;12.73;;;-2.50;99.90;;;;;;5026371;28;20448;-58
2023/02/15 03:38:25;;;;;;;21.90;12.60;;;-2.50;99.90;;;;;;5023623;28;20527;-57
2023/02/15 03:41:11;;;;;;;20.50;11.73;;;-2.60;99.90;;;;;;5028847;28;20447;-59
2023/02/15 03:44:00;;;;;;;21.80;12.57;;;-2.60;99.90;;;;;;5027192;28;20416;-58
2023/02/15 03:46:46;;;;;;;20.60;13.50;;;-2.60;99.90;;;;;;5028931;28;20479;-59
2023/02/15 03:49:29;;;;;;;20.43;12.90;;;-2.60;99.90;;;;;;5022009;28;20555;-58
2023/02/15 03:51:57;;;;;;;24.47;13.53;;;-2.60;99.90;;;;;;5028629;28;20439;-59
2023/02/15 03:54:43;;;;;;;24.23;13.37;;;-2.60;99.90;;;;;;5028476;28;20443;-58
2023/02/15 04:03:14;;;;;;;19.73;12.20;;;-2.60;99.90;;;;;;5029972;28;20434;-59
2023/02/15 04:05:42;;;;;;;21.83;13.03;;;-2.60;99.90;;;;;;5031211;28;20479;-59
2023/02/15 04:08:08;;;;;;;21.73;12.00;;;-2.60;99.90;;;;;;5006633;28;20985;-58
2023/02/15 04:10:52;;;;;;;22.27;12.70;;;-2.60;99.90;;;;;;5028323;28;20519;-58
2023/02/15 04:13:30;;;;;;;20.17;12.60;;;-2.60;99.90;;;;;;5033890;28;20416;-58
2023/02/15 04:16:02;;;;;;;20.13;12.00;;;-2.60;99.90;;;;;;5017615;28;20463;-59
2023/02/15 04:26:44;;;;;;;22.40;12.63;;;-2.60;99.90;;;;;;5020133;28;20491;-58
2023/02/15 04:29:10;;;;;;;23.70;13.63;;;-2.60;99.90;;;;;;5023501;28;20905;-59
2023/02/15 04:31:36;;;;;;;20.20;11.83;;;-2.60;99.90;;;;;;5026770;28;20209;-58
2023/02/15 04:34:01;;;;;;;22.00;11.80;;;-2.60;99.90;;;;;;5024744;28;20177;-61
2023/02/15 04:36:27;;;;;;;21.70;12.20;;;-2.60;99.90;;;;;;5027227;28;20208;-60
2023/02/15 04:38:52;;;;;;;23.53;13.17;;;-2.60;99.90;;;;;;5026538;28;20203;-58
2023/02/15 04:41:18;;;;;;;19.07;11.97;;;-2.60;99.90;;;;;;5027702;28;20181;-58
2023/02/15 04:43:43;;;;;;;22.67;13.53;;;-2.60;99.90;;;;;;5030928;28;20190;-57
2023/02/15 04:46:09;;;;;;;22.20;12.60;;;-2.60;99.90;;;;;;5039708;28;20261;-59
2023/02/15 04:48:35;;;;;;;21.37;13.10;;;-2.70;99.90;;;;;;5028120;28;20565;-58
2023/02/15 04:51:06;;;;;;;21.50;12.20;;;-2.60;99.90;;;;;;5021749;28;20191;-59
2023/02/15 04:53:32;;;;;;;23.40;12.57;;;-2.70;99.90;;;;;;5021630;28;20273;-59
2023/02/15 04:55:57;;;;;;;26.90;13.90;;;-2.60;99.90;;;;;;5020232;28;20690;-58
2023/02/15 04:58:23;;;;;;;28.27;14.50;;;-2.60;99.90;;;;;;5030998;28;20242;-59
2023/02/15 05:00:48;;;;;;;24.10;13.27;;;-2.70;99.90;;;;;;5024628;28;20197;-59
2023/02/15 05:03:14;;;;;;;26.07;12.60;;;-2.70;99.90;;;;;;5028192;28;20186;-59
2023/02/15 05:05:40;;;;;;;22.47;12.90;;;-2.70;99.90;;;;;;5021857;28;20205;-59
2023/02/15 05:08:06;;;;;;;24.00;14.60;;;-2.70;99.90;;;;;;5013149;28;20208;-58
2023/02/15 05:10:31;;;;;;;27.57;13.60;;;-2.80;99.90;;;;;;5013293;28;22819;-58
2023/02/15 05:12:57;;;;;;;21.67;12.83;;;-2.80;99.90;;;;;;5022985;28;20196;-59
2023/02/15 05:15:22;;;;;;;25.43;13.47;;;-2.70;99.90;;;;;;5020477;28;20822;-57
2023/02/15 05:17:48;;;;;;;25.10;14.53;;;-2.80;99.90;;;;;;5023298;28;20186;-61
2023/02/15 05:20:14;;;;;;;20.00;12.73;;;-2.80;99.90;;;;;;5018855;28;20859;-58
2023/02/15 05:22:40;;;;;;;32.87;14.53;;;-2.80;99.90;;;;;;5025447;28;20174;-56
2023/02/15 05:30:36;;;;;;;22.47;13.87;;;-2.80;99.90;;;;;;5023171;28;20451;-59
2023/02/15 05:33:01;;;;;;;23.43;12.93;;;-2.70;99.90;;;;;;5027046;28;20425;-61
2023/02/15 05:35:27;;;;;;;22.20;12.70;;;-2.70;99.90;;;;;;5020541;28;20324;-59
2023/02/15 05:37:53;;;;;;;25.93;13.23;;;-2.70;99.90;;;;;;5027244;28;20203;-60
2023/02/15 05:40:18;;;;;;;25.50;14.03;;;-2.70;99.90;;;;;;5027118;28;20177;-59
2023/02/15 05:42:44;;;;;;;26.40;13.30;;;-2.70;99.90;;;;;;5025939;28;20627;-59
2023/02/15 05:45:09;;;;;;;24.50;13.17;;;-2.70;99.90;;;;;;5006653;28;20682;-59
2023/02/15 05:47:35;;;;;;;26.93;15.50;;;-2.70;99.90;;;;;;5022692;28;20187;-59
2023/02/15 05:50:01;;;;;;;27.60;14.40;;;-2.80;99.90;;;;;;5024077;28;20705;-59
2023/02/15 05:52:26;;;;;;;31.60;14.43;;;-2.80;99.90;;;;;;5024948;28;20187;-59
2023/02/15 05:54:52;;;;;;;30.30;13.77;;;-2.70;99.90;;;;;;5029166;28;20202;-59
2023/02/15 05:57:17;;;;;;;23.80;13.20;;;-2.80;99.90;;;;;;5018612;28;20223;-59
2023/02/15 05:59:43;;;;;;;28.33;14.63;;;-2.80;99.90;;;;;;5001106;28;20553;-59
2023/02/15 06:02:08;;;;;;;26.00;14.70;;;-2.80;99.90;;;;;;5028074;28;20182;-59
2023/02/15 06:04:34;;;;;;;27.60;14.93;;;-2.70;99.90;;;;;;5026616;28;20584;-58
2023/02/15 06:07:00;;;;;;;31.27;15.70;;;-2.80;99.90;;;;;;5025167;28;20187;-56
2023/02/15 06:09:25;;;;;;;27.23;13.40;;;-2.80;99.90;;;;;;5031431;28;20603;-57
2023/02/15 06:11:51;;;;;;;28.97;15.90;;;-2.80;99.90;;;;;;5035743;28;20183;-60
2023/02/15 06:14:16;;;;;;;31.30;16.07;;;-2.80;99.90;;;;;;5036100;28;20662;-59
2023/02/15 06:16:42;;;;;;;28.83;15.13;;;-2.80;99.90;;;;;;5032013;28;20196;-59
2023/02/15 06:19:08;;;;;;;38.20;17.13;;;-2.80;99.90;;;;;;5036921;28;20713;-59
2023/02/15 06:21:33;;;;;;;29.90;15.93;;;-2.80;99.90;;;;;;5027006;28;20189;-61
2023/02/15 06:23:59;;;;;;;30.90;16.10;;;-2.80;99.90;;;;;;5025720;28;20840;-59
2023/02/15 06:26:24;;;;;;;33.07;16.20;;;-2.80;99.90;;;;;;5010330;28;20198;-59
2023/02/15 06:28:50;;;;;;;32.33;16.87;;;-2.80;99.90;;;;;;5016018;28;20205;-60
2023/02/15 06:31:16;;;;;;;32.33;16.33;;;-2.80;99.90;;;;;;5020650;28;20584;-60
2023/02/15 06:33:41;;;;;;;28.87;15.20;;;-2.80;99.90;;;;;;5025501;28;20214;-59
2023/02/15 06:36:07;;;;;;;26.80;15.90;;;-2.80;99.90;;;;;;5032088;28;20213;-60
2023/02/15 06:38:33;;;;;;;41.57;18.80;;;-2.80;99.90;;;;;;5026687;28;20207;-58
2023/02/15 06:40:58;;;;;;;38.10;18.00;;;-2.80;99.90;;;;;;5027284;28;20489;-60
2023/02/15 06:43:24;;;;;;;28.80;15.83;;;-2.80;99.90;;;;;;5024243;28;20177;-58
2023/02/15 06:45:49;;;;;;;31.80;16.27;;;-2.80;99.90;;;;;;5027186;28;20205;-59
2023/02/15 06:48:15;;;;;;;36.87;15.53;;;-2.80;99.90;;;;;;5025396;28;20197;-59
2023/02/15 06:50:41;;;;;;;28.73;15.43;;;-2.80;99.90;;;;;;5028466;28;20255;-59
2023/02/15 06:53:07;;;;;;;34.83;15.80;;;-2.80;99.90;;;;;;5024815;28;20177;-60
2023/02/15 06:55:32;;;;;;;35.23;16.83;;;-2.80;99.90;;;;;;5029202;28;20227;-60
2023/02/15 06:57:58;;;;;;;32.93;16.57;;;-2.80;99.90;;;;;;5025143;28;20187;-59
2023/02/15 07:00:23;;;;;;;31.30;17.13;;;-2.70;99.90;;;;;;5024857;28;20191;-54
2023/02/15 07:02:57;;;;;;;28.37;15.60;;;-2.70;99.90;;;;;;5017495;28;20185;-60
2023/02/15 07:05:30;;;;;;;32.20;16.90;;;-2.70;99.90;;;;;;5020753;28;20197;-59
2023/02/15 07:07:57;;;;;;;30.97;14.47;;;-2.70;99.90;;;;;;5014202;28;20454;-60
2023/02/15 07:10:23;;;;;;;31.77;16.87;;;-2.70;99.90;;;;;;5019126;28;20427;-59
2023/02/15 07:12:48;;;;;;;32.50;16.00;;;-2.70;99.90;;;;;;5025904;28;20503;-59
2023/02/15 07:15:20;;;;;;;33.93;17.00;;;-2.70;99.90;;;;;;5034851;28;20200;-59
2023/02/15 07:17:46;;;;;;;38.10;17.90;;;-2.70;99.90;;;;;;5035205;28;20750;-59
2023/02/15 07:20:21;;;;;;;30.83;16.03;;;-2.70;99.90;;;;;;5036186;28;20439;-60
2023/02/15 07:22:47;;;;;;;29.57;15.73;;;-2.60;99.90;;;;;;5011176;28;20497;-59
2023/02/15 07:25:13;;;;;;;30.90;15.23;;;-2.60;99.90;;;;;;5030697;28;20542;-60
2023/02/15 07:27:39;;;;;;;32.13;16.10;;;-2.50;99.90;;;;;;5031038;28;20794;-59
2023/02/15 07:30:07;;;;;;;34.77;16.77;;;-2.50;99.90;;;;;;5028260;28;20537;-59
2023/02/15 07:32:33;;;;;;;27.50;14.80;;;-2.40;99.90;;;;;;5026435;28;20432;-59
2023/02/15 07:34:59;;;;;;;29.50;15.30;;;-2.40;99.90;;;;;;5028014;28;20494;-59
2023/02/15 07:37:25;;;;;;;29.00;14.27;;;-2.30;99.90;;;;;;5017013;28;20440;-59
2023/02/15 07:39:51;;;;;;;27.30;14.50;;;-2.20;99.90;;;;;;5037955;28;20436;-60
2023/02/15 07:42:19;;;;;;;26.57;13.50;;;-2.20;99.90;;;;;;5025945;28;20429;-59
2023/02/15 07:44:45;;;;;;;21.30;12.03;;;-2.10;99.90;;;;;;5028042;28;20201;-60
2023/02/15 07:47:11;;;;;;;24.47;13.33;;;-2.00;99.90;;;;;;5027483;28;20460;-59
2023/02/15 07:49:38;;;;;;;22.10;12.30;;;-2.00;99.90;;;;;;5029136;28;20231;-58
2023/02/15 07:52:03;;;;;;;28.03;13.50;;;-1.90;99.90;;;;;;5035296;28;20463;-59
2023/02/15 07:54:29;;;;;;;26.40;12.57;;;-1.80;99.90;;;;;;5027941;28;20429;-59
2023/02/15 07:56:54;;;;;;;29.97;13.00;;;-1.70;99.90;;;;;;5028768;28;20550;-60
2023/02/15 07:59:20;;;;;;;25.37;13.17;;;-1.70;99.90;;;;;;5035889;28;20169;-59
2023/02/15 08:01:46;;;;;;;24.83;12.97;;;-1.60;99.90;;;;;;5010198;28;20193;-60
2023/02/15 08:04:11;;;;;;;27.63;13.03;;;-1.60;99.90;;;;;;5029993;28;20173;-61
2023/02/15 08:06:38;;;;;;;33.43;12.93;;;-1.50;99.90;;;;;;5014294;28;20216;-60
2023/02/15 08:09:08;;;;;;;26.40;13.40;;;-1.50;99.90;;;;;;5026853;28;20286;-59
2023/02/15 08:11:39;;;;;;;27.83;14.23;;;-1.40;99.90;;;;;;5024333;28;20425;-59
2023/02/15 08:14:05;;;;;;;23.23;12.60;;;-1.30;99.90;;;;;;5031336;28;20419;-59
2023/02/15 08:16:53;;;;;;;25.57;12.30;;;-1.30;99.90;;;;;;5036639;28;20466;-59
2023/02/15 08:19:27;;;;;;;24.60;12.50;;;-1.20;99.90;;;;;;5024448;28;20161;-59
2023/02/15 08:21:56;;;;;;;24.87;11.80;;;-1.10;99.90;;;;;;5038160;28;20528;-60
2023/02/15 08:24:23;;;;;;;23.50;12.50;;;-1.00;99.90;;;;;;5006098;28;20825;-60
2023/02/15 08:26:50;;;;;;;18.57;11.00;;;-0.90;99.90;;;;;;5018166;28;20781;-59
2023/02/15 08:29:17;;;;;;;23.80;11.30;;;-0.80;99.90;;;;;;5036213;28;21054;-59
2023/02/15 08:31:44;;;;;;;23.70;11.20;;;-0.70;99.90;;;;;;5030989;28;20913;-60
2023/02/15 08:34:13;;;;;;;22.30;10.70;;;-0.70;99.90;;;;;;5028752;28;20479;-59
2023/02/15 08:36:38;;;;;;;22.93;11.37;;;-0.60;99.90;;;;;;5036933;28;20970;-59
2023/02/15 08:39:05;;;;;;;23.10;12.37;;;-0.50;99.90;;;;;;5036438;28;20436;-59
2023/02/15 08:41:35;;;;;;;22.00;11.50;;;-0.40;99.90;;;;;;5035694;28;20221;-59
2023/02/15 08:44:04;;;;;;;20.83;10.50;;;-0.40;99.90;;;;;;5035177;28;20424;-60
2023/02/15 08:46:32;;;;;;;22.43;10.63;;;-0.30;99.90;;;;;;5022205;28;20813;-59
2023/02/15 08:48:58;;;;;;;23.47;11.77;;;-0.20;99.90;;;;;;5003592;28;20589;-59
2023/02/15 08:51:28;;;;;;;17.40;9.87;;;-0.10;99.90;;;;;;5030111;28;20527;-60
2023/02/15 08:53:57;;;;;;;25.03;10.90;;;-0.10;99.90;;;;;;5039401;28;20427;-60
2023/02/15 08:56:28;;;;;;;15.53;9.07;;;0.00;99.90;;;;;;5033063;28;20502;-59
2023/02/15 08:58:55;;;;;;;11.43;7.10;;;0.00;99.90;;;;;;5037954;28;20432;-60
2023/02/15 09:01:23;;;;;;;18.97;9.03;;;0.10;99.90;;;;;;5022248;28;20441;-59
2023/02/15 09:03:53;;;;;;;14.47;8.70;;;0.10;99.90;;;;;;5020224;28;20424;-59
2023/02/15 09:06:19;;;;;;;14.10;8.63;;;0.20;99.90;;;;;;5010423;28;20727;-61
2023/02/15 09:08:45;;;;;;;14.43;8.33;;;0.30;99.90;;;;;;5031697;28;20456;-59
2023/02/15 09:11:22;;;;;;;15.33;8.80;;;0.40;99.90;;;;;;5024207;28;20507;-59
2023/02/15 09:13:52;;;;;;;17.70;8.80;;;0.50;99.90;;;;;;5028174;28;20542;-59
2023/02/15 09:16:18;;;;;;;18.03;9.57;;;0.60;99.90;;;;;;5024709;28;20551;-59
2023/02/15 09:18:44;;;;;;;18.50;9.60;;;0.70;99.90;;;;;;5027523;28;21091;-59
2023/02/15 09:21:15;;;;;;;19.73;9.53;;;0.80;99.90;;;;;;5009571;28;20431;-60
2023/02/15 09:23:42;;;;;;;18.70;9.57;;;0.90;99.90;;;;;;5011144;28;20444;-59
2023/02/15 09:26:13;;;;;;;16.97;10.00;;;1.00;99.90;;;;;;5034727;28;20483;-59
2023/02/15 09:28:39;;;;;;;21.37;9.70;;;1.10;99.90;;;;;;5025443;28;21064;-60
2023/02/15 09:31:16;;;;;;;14.80;8.60;;;1.30;99.90;;;;;;5037005;28;20826;-60
2023/02/15 09:33:43;;;;;;;14.60;8.87;;;1.50;99.90;;;;;;5027653;28;20583;-60
2023/02/15 09:36:14;;;;;;;18.67;10.30;;;1.60;99.90;;;;;;5029954;28;20515;-60
2023/02/15 09:38:40;;;;;;;19.47;9.30;;;1.80;99.90;;;;;;5029933;28;20457;-59
2023/02/15 09:41:14;;;;;;;19.90;9.03;;;1.90;99.90;;;;;;5014825;28;20788;-59
2023/02/15 09:43:48;;;;;;;15.00;8.77;;;2.10;99.90;;;;;;5029207;28;20175;-60
2023/02/15 09:46:32;;;;;;;20.53;8.83;;;2.30;99.90;;;;;;5035171;28;20549;-59
2023/02/15 09:49:09;;;;;;;16.17;9.40;;;2.40;99.90;;;;;;5037971;28;20457;-60
2023/02/15 09:51:41;;;;;;;17.43;9.90;;;2.60;99.90;;;;;;5034395;28;20524;-60
2023/02/15 09:54:08;;;;;;;18.87;10.17;;;2.80;99.90;;;;;;5030180;28;20463;-59
2023/02/15 09:56:37;;;;;;;16.50;9.93;;;3.00;99.80;;;;;;5026517;28;20849;-60
2023/02/15 09:59:08;;;;;;;19.07;10.50;;;3.20;99.80;;;;;;5032578;28;20454;-59
2023/02/15 10:02:08;;;;;;;20.60;10.43;;;3.30;99.40;;;;;;5031117;28;20430;-60
2023/02/15 10:04:52;;;;;;;21.87;11.87;;;3.60;98.20;;;;;;5030434;28;20900;-59
2023/02/15 10:07:49;;;;;;;16.50;10.03;;;3.80;95.90;;;;;;5035992;28;20426;-60
2023/02/15 10:10:45;;;;;;;17.40;10.70;;;3.90;94.50;;;;;;5026012;28;20430;-59
2023/02/15 10:13:22;;;;;;;21.10;11.43;;;4.10;93.00;;;;;;5031982;28;20434;-60
2023/02/15 10:16:26;;;;;;;23.73;13.80;;;4.30;91.50;;;;;;5019855;28;20461;-60
2023/02/15 10:18:55;;;;;;;28.27;15.17;;;4.50;91.20;;;;;;5036632;28;20436;-59
2023/02/15 10:21:39;;;;;;;27.03;12.63;;;4.80;91.10;;;;;;5043730;28;21003;-61
2023/02/15 10:24:39;;;;;;;25.23;12.57;;;5.00;90.20;;;;;;5036128;28;20949;-59
2023/02/15 10:27:16;;;;;;;28.93;14.50;;;5.30;87.50;;;;;;5017549;28;20464;-59
2023/02/15 10:30:09;;;;;;;30.97;14.00;;;5.50;84.30;;;;;;5031276;28;20965;-60
2023/02/15 10:32:42;;;;;;;31.53;14.57;;;5.70;81.90;;;;;;5029614;28;20788;-59
2023/02/15 10:35:26;;;;;;;26.70;13.67;;;6.00;79.30;;;;;;5027452;28;20470;-59
2023/02/15 10:38:31;;;;;;;34.07;14.73;;;6.20;75.60;;;;;;5028220;28;20516;-59
2023/02/15 10:41:02;;;;;;;34.10;16.43;;;6.40;73.00;;;;;;5025536;28;20480;-59
2023/02/15 10:43:56;;;;;;;39.93;16.47;;;6.60;74.00;;;;;;5027476;28;20438;-58
2023/02/15 10:46:31;;;;;;;45.53;16.00;;;6.80;73.70;;;;;;5024719;28;20450;-59
2023/02/15 10:49:03;;;;;;;33.70;16.30;;;6.90;73.20;;;;;;5035821;28;21461;-59
2023/02/15 10:51:55;;;;;;;34.43;15.70;;;7.10;71.90;;;;;;5039894;28;20443;-59
2023/02/15 10:54:39;;;;;;;32.10;14.73;;;7.20;72.00;;;;;;5025317;28;20435;-59
2023/02/15 10:57:38;;;;;;;34.40;15.40;;;7.40;71.00;;;;;;5023763;28;20429;-58
2023/02/15 11:00:16;;;;;;;32.07;15.73;;;7.50;70.20;;;;;;5018230;28;20453;-60
2023/02/15 11:02:47;;;;;;;38.13;16.70;;;7.70;70.30;;;;;;5021106;28;20422;-59
2023/02/15 11:05:39;;;;;;;41.17;16.90;;;7.90;68.20;;;;;;5025749;28;20458;-59
2023/02/15 11:08:09;;;;;;;29.80;15.67;;;8.00;67.40;;;;;;5024194;28;20550;-58
2023/02/15 11:11:05;;;;;;;34.83;16.30;;;8.20;67.30;;;;;;5022623;28;20426;-59
2023/02/15 11:13:36;;;;;;;35.40;17.70;;;8.50;67.10;;;;;;5021145;28;20525;-59
2023/02/15 11:16:16;;;;;;;33.73;15.73;;;8.80;66.20;;;;;;5026018;28;20557;-59
2023/02/15 11:18:59;;;;;;;33.67;16.50;;;9.10;65.00;;;;;;5014750;28;20430;-59
2023/02/15 11:21:32;;;;;;;36.70;16.50;;;9.30;64.30;;;;;;5026850;28;20437;-59
2023/02/15 11:24:00;;;;;;;35.77;17.20;;;9.60;63.00;;;;;;5019583;28;20935;-59
2023/02/15 11:26:42;;;;;;;30.73;15.90;;;9.90;61.70;;;;;;5020168;28;20962;-61
2023/02/15 11:29:12;;;;;;;28.00;16.13;;;10.20;59.00;;;;;;5019017;28;20458;-60
2023/02/15 11:31:44;;;;;;;35.73;16.40;;;10.40;58.50;;;;;;5026426;28;20559;-59
2023/02/15 11:34:26;;;;;;;30.33;17.00;;;10.60;57.70;;;;;;5023478;28;20427;-58
2023/02/15 11:36:55;;;;;;;34.90;16.93;;;10.80;56.80;;;;;;5025798;28;20541;-61
2023/02/15 11:39:22;;;;;;;33.47;16.00;;;11.10;56.70;;;;;;5023225;28;20532;-59
2023/02/15 11:41:53;;;;;;;33.53;16.40;;;11.30;55.10;;;;;;5013990;28;20442;-62
2023/02/15 11:44:27;;;;;;;27.80;15.60;;;11.60;54.60;;;;;;5022069;28;20419;-60
2023/02/15 11:46:53;;;;;;;35.00;17.00;;;11.80;55.20;;;;;;4997780;28;21060;-60
2023/02/15 11:49:32;;;;;;;37.23;16.60;;;12.20;56.30;;;;;;5011802;28;20454;-60
2023/02/15 11:52:05;;;;;;;29.60;15.90;;;12.60;54.70;;;;;;5014534;28;20621;-60
2023/02/15 11:54:35;;;;;;;30.60;15.90;;;12.90;54.00;;;;;;5022322;28;20518;-61
2023/02/15 11:57:19;;;;;;;24.87;15.03;;;13.20;53.70;;;;;;5021832;28;20415;-60
2023/02/15 12:00:10;;;;;;;26.13;16.00;;;13.60;53.40;;;;;;5021338;28;20418;-61
2023/02/15 12:02:38;;;;;;;29.00;15.23;;;14.10;52.60;;;;;;5021348;28;21103;-60
2023/02/15 12:05:11;;;;;;;30.20;15.47;;;14.60;51.60;;;;;;5019230;28;20450;-60
2023/02/15 12:07:52;;;;;;;22.40;11.33;;;15.10;50.10;;;;;;5020884;28;20827;-61
2023/02/15 12:10:20;;;;;;;17.37;10.73;;;15.70;47.80;;;;;;5017712;28;20458;-61
2023/02/15 12:12:46;;;;;;;24.30;10.20;;;16.20;45.00;;;;;;5012858;28;20492;-61
2023/02/15 12:15:13;;;;;;;14.03;8.73;;;16.80;42.80;;;;;;5020119;28;20470;-61
2023/02/15 12:17:49;;;;;;;19.47;8.23;;;17.50;41.00;;;;;;5023185;28;20266;-61
2023/02/15 12:20:15;;;;;;;10.07;6.80;;;18.20;39.40;;;;;;5027257;28;20430;-61
2023/02/15 12:22:50;;;;;;;13.37;6.40;;;18.90;36.70;;;;;;5022596;28;20776;-61
2023/02/15 12:25:23;;;;;;;11.53;6.63;;;19.50;34.80;;;;;;5019079;28;20264;-61
2023/02/15 12:27:49;;;;;;;14.40;6.80;;;20.00;32.90;;;;;;5018561;28;20418;-61
2023/02/15 12:30:23;;;;;;;10.80;7.53;;;20.50;32.70;;;;;;5022957;28;20572;-60
2023/02/15 12:33:00;;;;;;;9.40;6.70;;;21.00;32.70;;;;;;5023262;28;20446;-60
2023/02/15 12:35:35;;;;;;;9.83;6.60;;;21.50;32.80;;;;;;5025764;28;20209;-61
2023/02/15 12:38:20;;;;;;;9.48;6.80;;;22.00;33.00;;;;;;5022798;28;20175;-61
2023/02/15 12:41:17;;;;;;;8.52;5.80;;;22.40;32.40;;;;;;5026872;28;20187;-60
2023/02/15 12:43:43;;;;;;;10.88;5.90;;;22.60;30.50;;;;;;5023460;28;20254;-61
2023/02/15 12:46:25;;;;;;;8.45;5.13;;;22.90;30.60;;;;;;5037719;28;20262;-60
2023/02/15 12:49:09;;;;;;;7.25;5.78;;;23.20;29.70;;;;;;5031996;28;20258;-60
2023/02/15 12:51:50;;;;;;;13.07;5.88;;;23.50;29.00;;;;;;5025267;28;20283;-61
2023/02/15 12:54:28;;;;;;;11.55;5.10;;;23.70;29.20;;;;;;5023431;28;20251;-61
2023/02/15 12:56:53;;;;;;;7.45;4.60;;;24.00;28.90;;;;;;5023379;28;20195;-60
2023/02/15 12:59:20;;;;;;;5.93;4.25;;;24.30;28.40;;;;;;5023208;28;20183;-61
2023/02/15 13:01:47;;;;;;;6.75;4.18;;;24.50;27.90;;;;;;5020513;28;20202;-61
2023/02/15 13:04:25;;;;;;;7.55;3.72;;;24.50;27.40;;;;;;5025304;28;20553;-61
2023/02/15 13:06:54;;;;;;;6.30;5.13;;;24.50;26.10;;;;;;5003312;28;20298;-61
2023/02/15 13:09:25;;;;;;;11.95;5.03;;;24.50;26.30;;;;;;5018580;28;20208;-58
2023/02/15 13:11:50;;;;;;;9.18;4.28;;;24.60;26.60;;;;;;5022664;28;21086;-59